sensor_id;sensor_type;location;lat;lon;timestamp;P1;durP1;ratioP1;P2;durP2;ratioP2
31537;SDS011;18147;51.952;6.146;2024-02-23T00:00:30;1.38;;;0.70;;
31537;SDS011;18147;51.952;6.146;2024-02-23T00:02:55;1.17;;;0.90;;
31537;SDS011;18147;51.952;6.146;2024-02-23T00:05:23;3.45;;;1.17;;
31537;SDS011;18147;51.952;6.146;2024-02-23T00:07:49;3.15;;;1.20;;
31537;SDS011;18147;51.952;6.146;2024-02-23T00:10:14;9.30;;;1.60;;
31537;SDS011;18147;51.952;6.146;2024-02-23T00:12:40;4.38;;;2.03;;
31537;SDS011;18147;51.952;6.146;2024-02-23T00:15:06;5.63;;;1.60;;
31537;SDS011;18147;51.952;6.146;2024-02-23T00:17:32;4.15;;;1.20;;
31537;SDS011;18147;51.952;6.146;2024-02-23T00:19:57;4.70;;;1.38;;
31537;SDS011;18147;51.952;6.146;2024-02-23T00:22:23;5.20;;;2.13;;
31537;SDS011;18147;51.952;6.146;2024-02-23T00:24:50;5.07;;;1.25;;
31537;SDS011;18147;51.952;6.146;2024-02-23T00:27:16;5.70;;;2.38;;
31537;SDS011;18147;51.952;6.146;2024-02-23T00:29:41;4.50;;;1.77;;
31537;SDS011;18147;51.952;6.146;2024-02-23T00:32:07;4.82;;;1.42;;
31537;SDS011;18147;51.952;6.146;2024-02-23T00:34:32;6.82;;;1.38;;
31537;SDS011;18147;51.952;6.146;2024-02-23T00:36:58;6.45;;;1.48;;
31537;SDS011;18147;51.952;6.146;2024-02-23T00:39:23;3.80;;;1.40;;
31537;SDS011;18147;51.952;6.146;2024-02-23T00:41:48;6.80;;;2.03;;
31537;SDS011;18147;51.952;6.146;2024-02-23T00:44:14;6.20;;;2.10;;
31537;SDS011;18147;51.952;6.146;2024-02-23T00:46:39;10.43;;;2.45;;
31537;SDS011;18147;51.952;6.146;2024-02-23T00:49:05;2.95;;;2.03;;
31537;SDS011;18147;51.952;6.146;2024-02-23T00:51:31;5.43;;;2.00;;
31537;SDS011;18147;51.952;6.146;2024-02-23T00:53:57;3.30;;;1.80;;
31537;SDS011;18147;51.952;6.146;2024-02-23T00:56:22;10.35;;;3.10;;
31537;SDS011;18147;51.952;6.146;2024-02-23T00:58:48;6.30;;;3.25;;
31537;SDS011;18147;51.952;6.146;2024-02-23T01:01:14;8.48;;;2.90;;
31537;SDS011;18147;51.952;6.146;2024-02-23T01:03:39;9.45;;;3.17;;
31537;SDS011;18147;51.952;6.146;2024-02-23T01:06:04;8.93;;;2.97;;
31537;SDS011;18147;51.952;6.146;2024-02-23T01:08:30;8.23;;;4.22;;
31537;SDS011;18147;51.952;6.146;2024-02-23T01:10:56;5.80;;;3.58;;
31537;SDS011;18147;51.952;6.146;2024-02-23T01:13:22;11.05;;;4.38;;
31537;SDS011;18147;51.952;6.146;2024-02-23T01:15:47;6.68;;;3.67;;
31537;SDS011;18147;51.952;6.146;2024-02-23T01:18:12;8.43;;;4.97;;
31537;SDS011;18147;51.952;6.146;2024-02-23T01:20:38;7.13;;;4.45;;
31537;SDS011;18147;51.952;6.146;2024-02-23T01:23:03;9.05;;;5.55;;
31537;SDS011;18147;51.952;6.146;2024-02-23T01:25:29;16.42;;;4.85;;
31537;SDS011;18147;51.952;6.146;2024-02-23T01:27:54;15.82;;;5.72;;
31537;SDS011;18147;51.952;6.146;2024-02-23T01:30:20;14.98;;;5.85;;
31537;SDS011;18147;51.952;6.146;2024-02-23T01:32:45;9.65;;;5.82;;
31537;SDS011;18147;51.952;6.146;2024-02-23T01:35:11;16.73;;;6.13;;
31537;SDS011;18147;51.952;6.146;2024-02-23T01:37:36;9.77;;;4.70;;
31537;SDS011;18147;51.952;6.146;2024-02-23T01:40:02;11.45;;;5.75;;
31537;SDS011;18147;51.952;6.146;2024-02-23T01:42:28;11.02;;;6.10;;
31537;SDS011;18147;51.952;6.146;2024-02-23T01:44:54;15.52;;;5.78;;
31537;SDS011;18147;51.952;6.146;2024-02-23T01:47:22;12.10;;;5.85;;
31537;SDS011;18147;51.952;6.146;2024-02-23T01:49:48;13.43;;;6.57;;
31537;SDS011;18147;51.952;6.146;2024-02-23T01:52:14;11.02;;;5.05;;
31537;SDS011;18147;51.952;6.146;2024-02-23T01:54:41;10.55;;;3.88;;
31537;SDS011;18147;51.952;6.146;2024-02-23T01:57:07;10.02;;;3.58;;
31537;SDS011;18147;51.952;6.146;2024-02-23T01:59:35;8.93;;;2.67;;
31537;SDS011;18147;51.952;6.146;2024-02-23T02:02:03;9.63;;;3.30;;
31537;SDS011;18147;51.952;6.146;2024-02-23T02:04:29;6.80;;;3.03;;
31537;SDS011;18147;51.952;6.146;2024-02-23T02:06:54;8.38;;;2.58;;
31537;SDS011;18147;51.952;6.146;2024-02-23T02:09:21;4.18;;;2.30;;
31537;SDS011;18147;51.952;6.146;2024-02-23T02:11:49;12.73;;;2.53;;
31537;SDS011;18147;51.952;6.146;2024-02-23T02:14:15;11.50;;;2.45;;
31537;SDS011;18147;51.952;6.146;2024-02-23T02:16:41;4.40;;;1.85;;
31537;SDS011;18147;51.952;6.146;2024-02-23T02:19:09;14.02;;;2.50;;
31537;SDS011;18147;51.952;6.146;2024-02-23T02:21:35;10.35;;;2.15;;
31537;SDS011;18147;51.952;6.146;2024-02-23T02:24:02;6.68;;;2.28;;
31537;SDS011;18147;51.952;6.146;2024-02-23T02:26:28;16.85;;;2.88;;
31537;SDS011;18147;51.952;6.146;2024-02-23T02:28:53;8.13;;;2.30;;
31537;SDS011;18147;51.952;6.146;2024-02-23T02:31:19;9.68;;;2.92;;
31537;SDS011;18147;51.952;6.146;2024-02-23T02:33:44;15.13;;;2.60;;
31537;SDS011;18147;51.952;6.146;2024-02-23T02:36:10;6.43;;;2.33;;
31537;SDS011;18147;51.952;6.146;2024-02-23T02:38:36;10.02;;;1.95;;
31537;SDS011;18147;51.952;6.146;2024-02-23T02:41:02;8.65;;;1.67;;
31537;SDS011;18147;51.952;6.146;2024-02-23T02:43:28;19.17;;;2.08;;
31537;SDS011;18147;51.952;6.146;2024-02-23T02:45:53;7.95;;;2.00;;
31537;SDS011;18147;51.952;6.146;2024-02-23T02:48:19;11.30;;;2.55;;
31537;SDS011;18147;51.952;6.146;2024-02-23T02:50:44;8.25;;;1.75;;
31537;SDS011;18147;51.952;6.146;2024-02-23T02:53:10;10.93;;;1.90;;
31537;SDS011;18147;51.952;6.146;2024-02-23T02:55:36;15.60;;;2.03;;
31537;SDS011;18147;51.952;6.146;2024-02-23T02:58:02;12.55;;;1.95;;
31537;SDS011;18147;51.952;6.146;2024-02-23T03:00:27;8.38;;;2.58;;
31537;SDS011;18147;51.952;6.146;2024-02-23T03:02:53;9.85;;;1.80;;
31537;SDS011;18147;51.952;6.146;2024-02-23T03:05:18;10.30;;;2.40;;
31537;SDS011;18147;51.952;6.146;2024-02-23T03:07:44;11.60;;;2.38;;
31537;SDS011;18147;51.952;6.146;2024-02-23T03:10:09;8.90;;;1.60;;
31537;SDS011;18147;51.952;6.146;2024-02-23T03:12:38;7.78;;;2.25;;
31537;SDS011;18147;51.952;6.146;2024-02-23T03:15:03;7.93;;;2.20;;
31537;SDS011;18147;51.952;6.146;2024-02-23T03:17:30;4.20;;;1.92;;
31537;SDS011;18147;51.952;6.146;2024-02-23T03:19:55;12.05;;;2.30;;
31537;SDS011;18147;51.952;6.146;2024-02-23T03:22:21;9.18;;;2.00;;
31537;SDS011;18147;51.952;6.146;2024-02-23T03:24:46;6.57;;;2.05;;
31537;SDS011;18147;51.952;6.146;2024-02-23T03:27:12;8.43;;;2.00;;
31537;SDS011;18147;51.952;6.146;2024-02-23T03:29:38;5.07;;;1.73;;
31537;SDS011;18147;51.952;6.146;2024-02-23T03:32:03;10.07;;;1.83;;
31537;SDS011;18147;51.952;6.146;2024-02-23T03:34:29;8.57;;;1.83;;
31537;SDS011;18147;51.952;6.146;2024-02-23T03:36:55;8.93;;;1.63;;
31537;SDS011;18147;51.952;6.146;2024-02-23T03:39:20;11.50;;;2.03;;
31537;SDS011;18147;51.952;6.146;2024-02-23T03:41:48;8.40;;;2.22;;
31537;SDS011;18147;51.952;6.146;2024-02-23T03:44:13;5.43;;;1.50;;
31537;SDS011;18147;51.952;6.146;2024-02-23T03:46:38;10.30;;;2.78;;
31537;SDS011;18147;51.952;6.146;2024-02-23T03:49:04;9.32;;;2.15;;
31537;SDS011;18147;51.952;6.146;2024-02-23T03:51:29;10.32;;;2.72;;
31537;SDS011;18147;51.952;6.146;2024-02-23T03:53:55;12.02;;;2.78;;
31537;SDS011;18147;51.952;6.146;2024-02-23T03:56:21;11.10;;;2.60;;
31537;SDS011;18147;51.952;6.146;2024-02-23T03:58:46;6.63;;;1.70;;
31537;SDS011;18147;51.952;6.146;2024-02-23T04:01:11;10.75;;;2.40;;
31537;SDS011;18147;51.952;6.146;2024-02-23T04:03:37;10.65;;;1.73;;
31537;SDS011;18147;51.952;6.146;2024-02-23T04:06:02;11.18;;;2.35;;
31537;SDS011;18147;51.952;6.146;2024-02-23T04:08:28;6.00;;;2.08;;
31537;SDS011;18147;51.952;6.146;2024-02-23T04:10:53;6.72;;;1.75;;
31537;SDS011;18147;51.952;6.146;2024-02-23T04:13:19;6.47;;;1.75;;
31537;SDS011;18147;51.952;6.146;2024-02-23T04:15:45;7.78;;;2.50;;
31537;SDS011;18147;51.952;6.146;2024-02-23T04:18:11;8.48;;;2.67;;
31537;SDS011;18147;51.952;6.146;2024-02-23T04:20:36;7.05;;;2.45;;
31537;SDS011;18147;51.952;6.146;2024-02-23T04:23:01;7.10;;;2.05;;
31537;SDS011;18147;51.952;6.146;2024-02-23T04:25:27;10.95;;;2.50;;
31537;SDS011;18147;51.952;6.146;2024-02-23T04:27:52;10.13;;;2.15;;
31537;SDS011;18147;51.952;6.146;2024-02-23T04:30:18;9.60;;;1.85;;
31537;SDS011;18147;51.952;6.146;2024-02-23T04:32:43;7.65;;;2.22;;
31537;SDS011;18147;51.952;6.146;2024-02-23T04:35:09;8.50;;;1.90;;
31537;SDS011;18147;51.952;6.146;2024-02-23T04:37:35;7.32;;;2.22;;
31537;SDS011;18147;51.952;6.146;2024-02-23T04:40:00;12.65;;;2.47;;
31537;SDS011;18147;51.952;6.146;2024-02-23T04:42:26;8.18;;;2.28;;
31537;SDS011;18147;51.952;6.146;2024-02-23T04:44:52;9.52;;;1.77;;
31537;SDS011;18147;51.952;6.146;2024-02-23T04:47:20;8.18;;;2.53;;
31537;SDS011;18147;51.952;6.146;2024-02-23T04:49:45;10.13;;;2.42;;
31537;SDS011;18147;51.952;6.146;2024-02-23T04:52:11;11.60;;;2.50;;
31537;SDS011;18147;51.952;6.146;2024-02-23T04:54:36;14.65;;;2.63;;
31537;SDS011;18147;51.952;6.146;2024-02-23T04:57:02;12.15;;;2.72;;
31537;SDS011;18147;51.952;6.146;2024-02-23T04:59:27;8.80;;;2.22;;
31537;SDS011;18147;51.952;6.146;2024-02-23T05:01:53;8.60;;;2.40;;
31537;SDS011;18147;51.952;6.146;2024-02-23T05:04:18;13.38;;;2.30;;
31537;SDS011;18147;51.952;6.146;2024-02-23T05:06:44;8.25;;;2.20;;
31537;SDS011;18147;51.952;6.146;2024-02-23T05:09:09;15.10;;;2.95;;
31537;SDS011;18147;51.952;6.146;2024-02-23T05:11:36;7.55;;;2.45;;
31537;SDS011;18147;51.952;6.146;2024-02-23T05:14:01;20.88;;;3.20;;
31537;SDS011;18147;51.952;6.146;2024-02-23T05:16:26;7.78;;;2.72;;
31537;SDS011;18147;51.952;6.146;2024-02-23T05:18:52;9.32;;;2.50;;
31537;SDS011;18147;51.952;6.146;2024-02-23T05:21:17;10.07;;;3.03;;
31537;SDS011;18147;51.952;6.146;2024-02-23T05:23:43;13.40;;;2.97;;
31537;SDS011;18147;51.952;6.146;2024-02-23T05:26:08;10.90;;;3.72;;
31537;SDS011;18147;51.952;6.146;2024-02-23T05:28:34;7.18;;;3.33;;
31537;SDS011;18147;51.952;6.146;2024-02-23T05:31:01;10.02;;;3.30;;
31537;SDS011;18147;51.952;6.146;2024-02-23T05:33:28;11.75;;;3.38;;
31537;SDS011;18147;51.952;6.146;2024-02-23T05:35:54;13.77;;;3.63;;
31537;SDS011;18147;51.952;6.146;2024-02-23T05:38:19;11.23;;;2.97;;
31537;SDS011;18147;51.952;6.146;2024-02-23T05:40:45;7.22;;;2.60;;
31537;SDS011;18147;51.952;6.146;2024-02-23T05:43:10;11.05;;;2.90;;
31537;SDS011;18147;51.952;6.146;2024-02-23T05:45:36;12.95;;;2.70;;
31537;SDS011;18147;51.952;6.146;2024-02-23T05:48:02;14.65;;;2.92;;
31537;SDS011;18147;51.952;6.146;2024-02-23T05:50:28;10.35;;;2.97;;
31537;SDS011;18147;51.952;6.146;2024-02-23T05:52:53;10.77;;;2.85;;
31537;SDS011;18147;51.952;6.146;2024-02-23T05:55:19;17.35;;;4.68;;
31537;SDS011;18147;51.952;6.146;2024-02-23T05:57:44;8.85;;;3.15;;
31537;SDS011;18147;51.952;6.146;2024-02-23T06:00:10;9.30;;;2.17;;
31537;SDS011;18147;51.952;6.146;2024-02-23T06:02:39;15.65;;;3.50;;
31537;SDS011;18147;51.952;6.146;2024-02-23T06:05:05;13.88;;;2.63;;
31537;SDS011;18147;51.952;6.146;2024-02-23T06:07:32;9.23;;;3.35;;
31537;SDS011;18147;51.952;6.146;2024-02-23T06:09:59;9.45;;;2.90;;
31537;SDS011;18147;51.952;6.146;2024-02-23T06:12:25;15.77;;;3.45;;
31537;SDS011;18147;51.952;6.146;2024-02-23T06:14:52;13.90;;;2.95;;
31537;SDS011;18147;51.952;6.146;2024-02-23T06:17:17;8.95;;;2.40;;
31537;SDS011;18147;51.952;6.146;2024-02-23T06:19:43;10.00;;;2.65;;
31537;SDS011;18147;51.952;6.146;2024-02-23T06:22:08;10.32;;;2.58;;
31537;SDS011;18147;51.952;6.146;2024-02-23T06:24:35;11.55;;;2.47;;
31537;SDS011;18147;51.952;6.146;2024-02-23T06:27:01;11.45;;;2.17;;
31537;SDS011;18147;51.952;6.146;2024-02-23T06:29:28;7.35;;;2.22;;
31537;SDS011;18147;51.952;6.146;2024-02-23T06:31:54;13.85;;;2.65;;
31537;SDS011;18147;51.952;6.146;2024-02-23T06:34:20;12.93;;;2.30;;
31537;SDS011;18147;51.952;6.146;2024-02-23T06:36:45;13.35;;;2.55;;
31537;SDS011;18147;51.952;6.146;2024-02-23T06:39:11;11.27;;;3.10;;
31537;SDS011;18147;51.952;6.146;2024-02-23T06:41:37;11.32;;;2.58;;
31537;SDS011;18147;51.952;6.146;2024-02-23T06:44:04;12.57;;;2.92;;
31537;SDS011;18147;51.952;6.146;2024-02-23T06:46:29;11.05;;;2.90;;
31537;SDS011;18147;51.952;6.146;2024-02-23T06:48:55;13.50;;;2.70;;
31537;SDS011;18147;51.952;6.146;2024-02-23T06:51:21;9.10;;;2.45;;
31537;SDS011;18147;51.952;6.146;2024-02-23T06:53:46;8.57;;;2.08;;
31537;SDS011;18147;51.952;6.146;2024-02-23T06:56:12;11.70;;;2.25;;
31537;SDS011;18147;51.952;6.146;2024-02-23T06:58:37;15.82;;;2.50;;
31537;SDS011;18147;51.952;6.146;2024-02-23T07:01:04;13.55;;;2.17;;
31537;SDS011;18147;51.952;6.146;2024-02-23T07:03:31;7.45;;;2.20;;
31537;SDS011;18147;51.952;6.146;2024-02-23T07:05:57;10.32;;;3.92;;
31537;SDS011;18147;51.952;6.146;2024-02-23T07:08:23;8.32;;;1.67;;
31537;SDS011;18147;51.952;6.146;2024-02-23T07:10:48;9.23;;;1.83;;
31537;SDS011;18147;51.952;6.146;2024-02-23T07:13:14;6.32;;;1.80;;
31537;SDS011;18147;51.952;6.146;2024-02-23T07:15:39;5.20;;;2.10;;
31537;SDS011;18147;51.952;6.146;2024-02-23T07:18:05;14.18;;;2.25;;
31537;SDS011;18147;51.952;6.146;2024-02-23T07:20:30;9.35;;;1.90;;
31537;SDS011;18147;51.952;6.146;2024-02-23T07:22:56;7.93;;;2.28;;
31537;SDS011;18147;51.952;6.146;2024-02-23T07:25:21;7.05;;;2.33;;
31537;SDS011;18147;51.952;6.146;2024-02-23T07:27:47;10.35;;;2.35;;
31537;SDS011;18147;51.952;6.146;2024-02-23T07:30:17;9.88;;;1.85;;
31537;SDS011;18147;51.952;6.146;2024-02-23T07:32:43;9.10;;;2.03;;
31537;SDS011;18147;51.952;6.146;2024-02-23T07:35:09;11.02;;;2.30;;
31537;SDS011;18147;51.952;6.146;2024-02-23T07:37:36;8.50;;;2.50;;
31537;SDS011;18147;51.952;6.146;2024-02-23T07:40:01;4.60;;;1.58;;
31537;SDS011;18147;51.952;6.146;2024-02-23T07:42:29;12.07;;;2.50;;
31537;SDS011;18147;51.952;6.146;2024-02-23T07:44:55;11.10;;;2.28;;
31537;SDS011;18147;51.952;6.146;2024-02-23T07:47:21;8.27;;;2.13;;
31537;SDS011;18147;51.952;6.146;2024-02-23T07:49:46;15.00;;;2.63;;
31537;SDS011;18147;51.952;6.146;2024-02-23T07:52:12;13.38;;;3.17;;
31537;SDS011;18147;51.952;6.146;2024-02-23T07:54:37;11.35;;;2.15;;
31537;SDS011;18147;51.952;6.146;2024-02-23T07:57:03;10.85;;;2.58;;
31537;SDS011;18147;51.952;6.146;2024-02-23T07:59:30;5.63;;;2.05;;
31537;SDS011;18147;51.952;6.146;2024-02-23T08:01:56;16.83;;;2.53;;
31537;SDS011;18147;51.952;6.146;2024-02-23T08:04:21;10.65;;;2.55;;
31537;SDS011;18147;51.952;6.146;2024-02-23T08:06:47;10.25;;;1.90;;
31537;SDS011;18147;51.952;6.146;2024-02-23T08:09:13;11.20;;;2.50;;
31537;SDS011;18147;51.952;6.146;2024-02-23T08:11:39;14.27;;;2.60;;
31537;SDS011;18147;51.952;6.146;2024-02-23T08:14:04;10.32;;;2.10;;
31537;SDS011;18147;51.952;6.146;2024-02-23T08:16:30;12.82;;;2.10;;
31537;SDS011;18147;51.952;6.146;2024-02-23T08:18:55;10.38;;;2.10;;
31537;SDS011;18147;51.952;6.146;2024-02-23T08:21:21;8.20;;;2.35;;
31537;SDS011;18147;51.952;6.146;2024-02-23T08:23:46;6.88;;;2.00;;
31537;SDS011;18147;51.952;6.146;2024-02-23T08:26:12;9.55;;;2.60;;
31537;SDS011;18147;51.952;6.146;2024-02-23T08:28:37;27.02;;;2.58;;
31537;SDS011;18147;51.952;6.146;2024-02-23T08:31:03;14.85;;;2.80;;
31537;SDS011;18147;51.952;6.146;2024-02-23T08:33:28;10.02;;;1.90;;
31537;SDS011;18147;51.952;6.146;2024-02-23T08:35:54;7.40;;;1.63;;
31537;SDS011;18147;51.952;6.146;2024-02-23T08:38:20;8.93;;;2.05;;
31537;SDS011;18147;51.952;6.146;2024-02-23T08:40:45;9.90;;;2.15;;
31537;SDS011;18147;51.952;6.146;2024-02-23T08:43:11;7.38;;;2.00;;
31537;SDS011;18147;51.952;6.146;2024-02-23T08:45:36;7.25;;;1.45;;
31537;SDS011;18147;51.952;6.146;2024-02-23T08:48:02;3.47;;;1.67;;
31537;SDS011;18147;51.952;6.146;2024-02-23T08:50:28;9.00;;;1.92;;
31537;SDS011;18147;51.952;6.146;2024-02-23T08:52:54;7.90;;;1.80;;
31537;SDS011;18147;51.952;6.146;2024-02-23T08:55:20;18.10;;;2.28;;
31537;SDS011;18147;51.952;6.146;2024-02-23T08:57:46;14.40;;;2.53;;
31537;SDS011;18147;51.952;6.146;2024-02-23T09:00:12;7.93;;;2.03;;
31537;SDS011;18147;51.952;6.146;2024-02-23T09:02:39;8.02;;;1.88;;
31537;SDS011;18147;51.952;6.146;2024-02-23T09:05:07;9.13;;;2.00;;
31537;SDS011;18147;51.952;6.146;2024-02-23T09:07:32;7.28;;;1.85;;
31537;SDS011;18147;51.952;6.146;2024-02-23T09:09:57;5.35;;;1.98;;
31537;SDS011;18147;51.952;6.146;2024-02-23T09:12:23;4.93;;;1.80;;
31537;SDS011;18147;51.952;6.146;2024-02-23T09:14:48;9.93;;;1.80;;
31537;SDS011;18147;51.952;6.146;2024-02-23T09:17:14;8.30;;;2.15;;
31537;SDS011;18147;51.952;6.146;2024-02-23T09:19:39;8.77;;;1.85;;
31537;SDS011;18147;51.952;6.146;2024-02-23T09:22:05;10.50;;;2.47;;
31537;SDS011;18147;51.952;6.146;2024-02-23T09:24:30;13.10;;;2.88;;
31537;SDS011;18147;51.952;6.146;2024-02-23T09:26:56;11.10;;;1.90;;
31537;SDS011;18147;51.952;6.146;2024-02-23T09:29:21;8.68;;;1.90;;
31537;SDS011;18147;51.952;6.146;2024-02-23T09:31:47;6.43;;;1.75;;
31537;SDS011;18147;51.952;6.146;2024-02-23T09:34:12;8.57;;;2.55;;
31537;SDS011;18147;51.952;6.146;2024-02-23T09:36:38;10.10;;;2.30;;
31537;SDS011;18147;51.952;6.146;2024-02-23T09:39:06;12.25;;;2.20;;
31537;SDS011;18147;51.952;6.146;2024-02-23T09:41:31;9.15;;;1.77;;
31537;SDS011;18147;51.952;6.146;2024-02-23T09:43:58;9.63;;;1.85;;
31537;SDS011;18147;51.952;6.146;2024-02-23T09:46:24;12.48;;;2.30;;
31537;SDS011;18147;51.952;6.146;2024-02-23T09:48:50;9.68;;;2.08;;
31537;SDS011;18147;51.952;6.146;2024-02-23T09:51:16;11.35;;;2.42;;
31537;SDS011;18147;51.952;6.146;2024-02-23T09:53:42;13.20;;;2.05;;
31537;SDS011;18147;51.952;6.146;2024-02-23T09:56:09;12.52;;;2.20;;
31537;SDS011;18147;51.952;6.146;2024-02-23T09:58:39;9.98;;;2.17;;
31537;SDS011;18147;51.952;6.146;2024-02-23T10:01:06;12.15;;;1.80;;
31537;SDS011;18147;51.952;6.146;2024-02-23T10:03:32;10.57;;;2.35;;
31537;SDS011;18147;51.952;6.146;2024-02-23T10:05:58;7.07;;;1.92;;
31537;SDS011;18147;51.952;6.146;2024-02-23T10:08:26;10.57;;;1.95;;
31537;SDS011;18147;51.952;6.146;2024-02-23T10:10:52;13.07;;;2.40;;
31537;SDS011;18147;51.952;6.146;2024-02-23T10:13:20;7.05;;;1.63;;
31537;SDS011;18147;51.952;6.146;2024-02-23T10:15:49;7.50;;;1.80;;
31537;SDS011;18147;51.952;6.146;2024-02-23T10:18:15;9.13;;;1.67;;
31537;SDS011;18147;51.952;6.146;2024-02-23T10:20:41;10.23;;;2.20;;
31537;SDS011;18147;51.952;6.146;2024-02-23T10:23:07;11.23;;;2.17;;
31537;SDS011;18147;51.952;6.146;2024-02-23T10:25:34;4.90;;;1.63;;
31537;SDS011;18147;51.952;6.146;2024-02-23T10:28:06;9.68;;;2.30;;
31537;SDS011;18147;51.952;6.146;2024-02-23T10:30:32;8.00;;;2.28;;
31537;SDS011;18147;51.952;6.146;2024-02-23T10:32:58;8.98;;;1.88;;
31537;SDS011;18147;51.952;6.146;2024-02-23T10:35:25;11.13;;;2.08;;
31537;SDS011;18147;51.952;6.146;2024-02-23T10:37:52;6.22;;;1.67;;
31537;SDS011;18147;51.952;6.146;2024-02-23T10:40:20;7.47;;;1.85;;
31537;SDS011;18147;51.952;6.146;2024-02-23T10:42:47;7.28;;;2.28;;
31537;SDS011;18147;51.952;6.146;2024-02-23T10:45:16;5.47;;;2.08;;
31537;SDS011;18147;51.952;6.146;2024-02-23T10:47:45;11.77;;;1.98;;
31537;SDS011;18147;51.952;6.146;2024-02-23T10:50:12;8.98;;;2.28;;
31537;SDS011;18147;51.952;6.146;2024-02-23T10:52:41;8.90;;;2.75;;
31537;SDS011;18147;51.952;6.146;2024-02-23T10:55:10;10.95;;;1.88;;
31537;SDS011;18147;51.952;6.146;2024-02-23T10:57:36;7.18;;;2.03;;
31537;SDS011;18147;51.952;6.146;2024-02-23T11:00:02;7.72;;;1.85;;
31537;SDS011;18147;51.952;6.146;2024-02-23T11:02:35;8.88;;;1.80;;
31537;SDS011;18147;51.952;6.146;2024-02-23T11:05:12;4.07;;;1.42;;
31537;SDS011;18147;51.952;6.146;2024-02-23T11:07:39;5.55;;;2.15;;
31537;SDS011;18147;51.952;6.146;2024-02-23T11:10:05;4.43;;;1.85;;
31537;SDS011;18147;51.952;6.146;2024-02-23T11:12:31;7.88;;;1.95;;
31537;SDS011;18147;51.952;6.146;2024-02-23T11:14:59;6.65;;;2.47;;
31537;SDS011;18147;51.952;6.146;2024-02-23T11:17:29;5.70;;;1.33;;
31537;SDS011;18147;51.952;6.146;2024-02-23T11:19:56;7.07;;;1.20;;
31537;SDS011;18147;51.952;6.146;2024-02-23T11:22:25;7.63;;;2.10;;
31537;SDS011;18147;51.952;6.146;2024-02-23T11:25:03;2.63;;;1.38;;
31537;SDS011;18147;51.952;6.146;2024-02-23T11:27:31;3.42;;;1.65;;
31537;SDS011;18147;51.952;6.146;2024-02-23T11:30:01;5.10;;;1.40;;
31537;SDS011;18147;51.952;6.146;2024-02-23T11:32:38;4.20;;;1.30;;
31537;SDS011;18147;51.952;6.146;2024-02-23T11:35:12;6.18;;;1.70;;
31537;SDS011;18147;51.952;6.146;2024-02-23T11:37:55;5.47;;;1.42;;
31537;SDS011;18147;51.952;6.146;2024-02-23T11:40:25;9.98;;;1.80;;
31537;SDS011;18147;51.952;6.146;2024-02-23T11:42:51;4.43;;;1.45;;
31537;SDS011;18147;51.952;6.146;2024-02-23T11:45:17;3.83;;;1.45;;
31537;SDS011;18147;51.952;6.146;2024-02-23T11:47:42;5.07;;;1.50;;
31537;SDS011;18147;51.952;6.146;2024-02-23T11:50:11;6.63;;;1.48;;
31537;SDS011;18147;51.952;6.146;2024-02-23T11:52:39;2.97;;;1.45;;
31537;SDS011;18147;51.952;6.146;2024-02-23T11:55:05;5.53;;;1.35;;
31537;SDS011;18147;51.952;6.146;2024-02-23T11:57:32;4.15;;;1.75;;
31537;SDS011;18147;51.952;6.146;2024-02-23T11:59:58;4.40;;;1.77;;
31537;SDS011;18147;51.952;6.146;2024-02-23T12:02:24;3.35;;;1.63;;
31537;SDS011;18147;51.952;6.146;2024-02-23T12:04:49;5.68;;;1.50;;
31537;SDS011;18147;51.952;6.146;2024-02-23T12:07:15;6.10;;;1.70;;
31537;SDS011;18147;51.952;6.146;2024-02-23T12:09:41;6.68;;;2.00;;
31537;SDS011;18147;51.952;6.146;2024-02-23T12:12:07;6.70;;;1.90;;
31537;SDS011;18147;51.952;6.146;2024-02-23T12:14:35;6.90;;;1.88;;
31537;SDS011;18147;51.952;6.146;2024-02-23T12:17:01;10.40;;;2.30;;
31537;SDS011;18147;51.952;6.146;2024-02-23T12:19:29;12.48;;;2.30;;
31537;SDS011;18147;51.952;6.146;2024-02-23T12:21:59;3.53;;;1.73;;
31537;SDS011;18147;51.952;6.146;2024-02-23T12:24:25;12.60;;;1.70;;
31537;SDS011;18147;51.952;6.146;2024-02-23T12:26:55;8.15;;;2.28;;
31537;SDS011;18147;51.952;6.146;2024-02-23T12:29:21;4.57;;;1.63;;
31537;SDS011;18147;51.952;6.146;2024-02-23T12:31:47;5.00;;;1.63;;
31537;SDS011;18147;51.952;6.146;2024-02-23T12:34:13;5.90;;;2.03;;
31537;SDS011;18147;51.952;6.146;2024-02-23T12:36:38;9.48;;;1.90;;
31537;SDS011;18147;51.952;6.146;2024-02-23T12:39:04;7.65;;;1.77;;
31537;SDS011;18147;51.952;6.146;2024-02-23T12:41:29;7.22;;;1.48;;
31537;SDS011;18147;51.952;6.146;2024-02-23T12:43:55;13.27;;;2.28;;
31537;SDS011;18147;51.952;6.146;2024-02-23T12:46:20;5.38;;;1.90;;
31537;SDS011;18147;51.952;6.146;2024-02-23T12:48:46;6.32;;;2.15;;
31537;SDS011;18147;51.952;6.146;2024-02-23T12:51:11;14.32;;;2.88;;
31537;SDS011;18147;51.952;6.146;2024-02-23T12:56:04;4.65;;;1.75;;
31537;SDS011;18147;51.952;6.146;2024-02-23T12:58:33;11.85;;;1.88;;
31537;SDS011;18147;51.952;6.146;2024-02-23T13:00:59;3.47;;;1.80;;
31537;SDS011;18147;51.952;6.146;2024-02-23T13:27:43;8.45;;;2.22;;
31537;SDS011;18147;51.952;6.146;2024-02-23T13:30:11;8.25;;;2.25;;
31537;SDS011;18147;51.952;6.146;2024-02-23T13:33:04;7.60;;;2.28;;
31537;SDS011;18147;51.952;6.146;2024-02-23T14:02:37;10.93;;;2.97;;
31537;SDS011;18147;51.952;6.146;2024-02-23T14:05:12;10.05;;;2.97;;
31537;SDS011;18147;51.952;6.146;2024-02-23T14:07:42;10.07;;;2.53;;
31537;SDS011;18147;51.952;6.146;2024-02-23T14:15:30;5.68;;;2.20;;
31537;SDS011;18147;51.952;6.146;2024-02-23T14:17:55;5.60;;;2.33;;
31537;SDS011;18147;51.952;6.146;2024-02-23T14:20:20;8.43;;;2.35;;
31537;SDS011;18147;51.952;6.146;2024-02-23T14:22:46;7.88;;;3.00;;
31537;SDS011;18147;51.952;6.146;2024-02-23T14:25:11;6.47;;;2.10;;
31537;SDS011;18147;51.952;6.146;2024-02-23T14:27:37;5.35;;;1.75;;
31537;SDS011;18147;51.952;6.146;2024-02-23T14:30:03;7.50;;;1.90;;
31537;SDS011;18147;51.952;6.146;2024-02-23T14:32:29;3.38;;;1.83;;
31537;SDS011;18147;51.952;6.146;2024-02-23T14:34:54;9.88;;;2.83;;
31537;SDS011;18147;51.952;6.146;2024-02-23T14:37:20;9.90;;;2.33;;
31537;SDS011;18147;51.952;6.146;2024-02-23T14:39:46;5.45;;;2.50;;
31537;SDS011;18147;51.952;6.146;2024-02-23T14:42:11;7.68;;;2.85;;
31537;SDS011;18147;51.952;6.146;2024-02-23T14:44:37;10.50;;;2.58;;
31537;SDS011;18147;51.952;6.146;2024-02-23T14:47:03;10.25;;;2.80;;
31537;SDS011;18147;51.952;6.146;2024-02-23T14:49:30;8.63;;;2.85;;
31537;SDS011;18147;51.952;6.146;2024-02-23T14:51:56;9.43;;;3.10;;
31537;SDS011;18147;51.952;6.146;2024-02-23T14:54:21;9.98;;;2.88;;
31537;SDS011;18147;51.952;6.146;2024-02-23T14:56:46;8.98;;;2.97;;
31537;SDS011;18147;51.952;6.146;2024-02-23T14:59:12;8.43;;;2.85;;
31537;SDS011;18147;51.952;6.146;2024-02-23T15:01:37;10.18;;;2.92;;
31537;SDS011;18147;51.952;6.146;2024-02-23T15:04:06;8.13;;;2.53;;
31537;SDS011;18147;51.952;6.146;2024-02-23T15:06:32;7.25;;;2.78;;
31537;SDS011;18147;51.952;6.146;2024-02-23T15:08:58;12.90;;;3.58;;
31537;SDS011;18147;51.952;6.146;2024-02-23T15:11:23;8.68;;;2.92;;
31537;SDS011;18147;51.952;6.146;2024-02-23T15:13:50;10.70;;;2.97;;
31537;SDS011;18147;51.952;6.146;2024-02-23T15:16:17;7.40;;;3.28;;
31537;SDS011;18147;51.952;6.146;2024-02-23T15:18:42;9.32;;;2.70;;
31537;SDS011;18147;51.952;6.146;2024-02-23T15:21:08;5.90;;;2.60;;
31537;SDS011;18147;51.952;6.146;2024-02-23T15:23:33;10.32;;;2.95;;
31537;SDS011;18147;51.952;6.146;2024-02-23T15:25:59;14.07;;;3.30;;
31537;SDS011;18147;51.952;6.146;2024-02-23T15:28:24;8.25;;;2.08;;
31537;SDS011;18147;51.952;6.146;2024-02-23T15:30:50;7.32;;;2.60;;
31537;SDS011;18147;51.952;6.146;2024-02-23T15:33:16;9.05;;;2.70;;
31537;SDS011;18147;51.952;6.146;2024-02-23T15:35:44;4.90;;;2.63;;